Terminal Aerodrome Forecast
Issued by NWS Billings, MT

Home | Current Version | Previous Version | Text Only | Print | Product List | Glossary On
Versions: 1 2 3 4 5 6 7 8 9 10 11 12 13 14 15 16 17 18 19 20 21 22 23 24 25 26 27 28 29 30 31 32 33 34 35 36 37 38 39
000
FTUS45 KBYZ 271733
TAFBIL
TAF
KBIL 271733Z 2718/2818 04006KT P6SM FEW100
     FM272300 03012KT P6SM VCTS SCT080CB BKN120
     FM280500 02008KT P6SM VCSH BKN080
     FM280900 34008KT P6SM SCT100
     FM281500 04008KT P6SM SCT100=

USA.gov is the U.S. government's official web portal to all federal, state and local government web resources and services.